createdAt,value
2023-05-10T00:01:41.592Z,2.40
2023-05-10T00:04:10.003Z,2.55
2023-05-10T00:06:38.563Z,2.42
2023-05-10T00:09:07.119Z,2.00
2023-05-10T00:11:36.777Z,2.90
2023-05-10T00:14:05.567Z,2.45
2023-05-10T00:16:33.827Z,2.55
2023-05-10T00:19:02.112Z,3.17
2023-05-10T00:21:30.309Z,3.80
2023-05-10T00:23:58.506Z,3.80
2023-05-10T00:26:26.908Z,4.22
2023-05-10T00:28:59.558Z,3.10
2023-05-10T00:31:27.864Z,3.05
2023-05-10T00:33:56.778Z,2.95
2023-05-10T00:36:25.608Z,3.20
2023-05-10T00:38:53.853Z,3.50
2023-05-10T00:41:22.023Z,2.83
2023-05-10T00:43:50.343Z,3.13
2023-05-10T00:46:20.342Z,3.58
2023-05-10T00:48:48.703Z,2.88
2023-05-10T00:51:17.054Z,2.75
2023-05-10T00:53:47.488Z,2.13
2023-05-10T00:56:15.693Z,3.45
2023-05-10T00:58:44.215Z,3.15
2023-05-10T01:01:13.863Z,3.45
2023-05-10T01:03:43.754Z,2.63
2023-05-10T01:06:12.672Z,2.67
2023-05-10T01:08:41.319Z,2.42
2023-05-10T01:11:09.584Z,2.42
2023-05-10T01:13:40.319Z,2.50
2023-05-10T01:16:09.648Z,2.42
2023-05-10T01:18:40.764Z,2.70
2023-05-10T01:21:24.664Z,2.20
2023-05-10T01:24:24.661Z,2.50
2023-05-10T01:27:20.836Z,3.10
2023-05-10T01:30:28.186Z,2.60
2023-05-10T01:33:02.666Z,3.25
2023-05-10T01:35:40.138Z,3.30
2023-05-10T01:38:14.829Z,3.85
2023-05-10T01:40:50.625Z,3.33
2023-05-10T01:43:25.175Z,3.70
2023-05-10T01:46:05.566Z,3.50
2023-05-10T01:48:35.607Z,3.53
2023-05-10T01:51:04.579Z,3.90
2023-05-10T01:53:34.312Z,4.85
2023-05-10T01:56:04.153Z,3.67
2023-05-10T01:58:34.730Z,4.13
2023-05-10T02:01:07.027Z,4.95
2023-05-10T02:03:39.321Z,4.97
2023-05-10T02:06:08.865Z,4.25
2023-05-10T02:08:38.542Z,4.65
2023-05-10T02:11:07.281Z,5.40
2023-05-10T02:13:37.987Z,5.88
2023-05-10T02:16:08.311Z,4.97
2023-05-10T02:18:38.598Z,4.82
2023-05-10T02:21:07.156Z,5.15
2023-05-10T02:23:36.440Z,6.05
2023-05-10T02:26:06.772Z,6.32
2023-05-10T02:28:36.944Z,6.70
2023-05-10T02:31:07.178Z,6.05
2023-05-10T02:33:37.803Z,6.53
2023-05-10T02:36:06.466Z,5.75
2023-05-10T02:38:35.971Z,6.10
2023-05-10T02:41:06.463Z,5.95
2023-05-10T02:43:36.551Z,6.57
2023-05-10T02:46:05.153Z,6.88
2023-05-10T02:48:33.895Z,7.28
2023-05-10T02:51:09.019Z,7.60
2023-05-10T02:53:41.003Z,7.32
2023-05-10T02:56:16.376Z,7.85
2023-05-10T02:58:44.702Z,8.00
2023-05-10T03:01:13.495Z,8.20
2023-05-10T03:03:41.624Z,8.48
2023-05-10T03:06:11.569Z,9.15
2023-05-10T03:08:40.047Z,9.50
2023-05-10T03:11:32.123Z,8.98
2023-05-10T03:14:15.149Z,9.07
2023-05-10T03:16:48.609Z,9.30
2023-05-10T03:19:24.488Z,10.63
2023-05-10T03:21:57.496Z,11.32
2023-05-10T03:24:29.997Z,10.88
2023-05-10T03:27:03.866Z,9.55
2023-05-10T03:29:33.240Z,11.18
2023-05-10T03:32:01.609Z,10.68
2023-05-10T03:34:33.196Z,10.38
2023-05-10T03:37:02.882Z,10.70
2023-05-10T03:39:33.307Z,10.93
2023-05-10T03:42:03.017Z,10.57
2023-05-10T03:44:32.285Z,10.38
2023-05-10T03:47:00.692Z,11.40
2023-05-10T03:49:29.054Z,11.43
2023-05-10T03:51:57.425Z,9.60
2023-05-10T03:54:27.179Z,9.52
2023-05-10T03:56:55.359Z,10.07
2023-05-10T03:59:24.095Z,10.55
2023-05-10T04:01:53.542Z,8.90
2023-05-10T04:04:22.382Z,8.65
2023-05-10T04:10:51.895Z,5.63
2023-05-10T04:13:50.491Z,3.92
2023-05-10T04:16:18.851Z,3.80
2023-05-10T04:18:49.722Z,3.22
2023-05-10T04:21:24.779Z,2.70
2023-05-10T04:23:53.060Z,3.10
2023-05-10T04:26:21.570Z,2.90
2023-05-10T04:28:51.091Z,2.72
2023-05-10T04:31:19.302Z,3.10
2023-05-10T04:33:47.617Z,4.05
2023-05-10T04:36:16.074Z,3.65
2023-05-10T04:38:45.282Z,4.18
2023-05-10T04:41:13.511Z,4.65
2023-05-10T04:43:41.739Z,4.90
2023-05-10T04:46:11.423Z,4.55
2023-05-10T04:48:39.648Z,4.70
2023-05-10T04:51:07.979Z,4.70
2023-05-10T04:53:36.150Z,5.03
2023-05-10T04:56:04.558Z,4.82
2023-05-10T04:58:33.026Z,6.32
2023-05-10T05:01:08.117Z,5.40
2023-05-10T05:03:38.295Z,6.03
2023-05-10T05:06:07.015Z,6.20
2023-05-10T05:08:35.236Z,6.32
2023-05-10T05:11:03.408Z,5.57
2023-05-10T05:13:31.915Z,4.97
2023-05-10T05:16:03.170Z,6.15
2023-05-10T05:18:31.726Z,4.85
2023-05-10T05:21:01.603Z,5.07
2023-05-10T05:23:29.897Z,5.65
2023-05-10T05:25:58.072Z,5.80
2023-05-10T05:28:26.253Z,5.93
2023-05-10T05:30:54.375Z,5.93
2023-05-10T05:33:23.219Z,6.43
2023-05-10T05:35:51.805Z,6.57
2023-05-10T05:38:21.412Z,7.07
2023-05-10T05:40:49.618Z,6.53
2023-05-10T05:43:18.092Z,6.00
2023-05-10T05:45:46.322Z,6.50
2023-05-10T05:48:14.505Z,6.25
2023-05-10T05:50:42.666Z,6.28
2023-05-10T05:53:11.303Z,6.57
2023-05-10T05:55:41.287Z,5.97
2023-05-10T05:58:09.452Z,6.80
2023-05-10T06:00:37.580Z,6.85
2023-05-10T06:03:05.885Z,6.80
2023-05-10T06:05:34.368Z,6.97
2023-05-10T06:08:02.557Z,7.07
2023-05-10T06:10:31.465Z,6.68
2023-05-10T06:13:01.189Z,7.38
2023-05-10T06:15:29.686Z,7.38
2023-05-10T06:17:57.938Z,8.68
2023-05-10T06:20:26.167Z,6.95
2023-05-10T06:22:54.402Z,7.38
2023-05-10T06:25:23.073Z,6.07
2023-05-10T06:27:53.629Z,5.95
2023-05-10T06:30:28.174Z,6.55
2023-05-10T06:32:57.257Z,5.68
2023-05-10T06:35:25.514Z,5.03
2023-05-10T06:37:53.730Z,4.85
2023-05-10T06:40:22.164Z,5.07
2023-05-10T06:42:50.801Z,5.68
2023-05-10T06:45:19.806Z,5.18
2023-05-10T06:47:49.691Z,5.07
2023-05-10T06:50:18.003Z,6.57
2023-05-10T06:52:46.756Z,4.68
2023-05-10T06:55:15.208Z,5.50
2023-05-10T06:57:43.900Z,6.78
2023-05-10T07:00:12.676Z,6.10
2023-05-10T07:02:41.026Z,6.07
2023-05-10T07:05:11.605Z,7.10
2023-05-10T07:07:39.818Z,6.13
2023-05-10T07:10:09.527Z,6.35
2023-05-10T07:12:37.839Z,6.47
2023-05-10T07:15:07.115Z,7.32
2023-05-10T07:17:35.680Z,7.00
2023-05-10T07:20:04.875Z,6.93
2023-05-10T07:22:34.578Z,6.68
2023-05-10T07:25:03.365Z,7.38
2023-05-10T07:27:32.453Z,7.28
2023-05-10T07:30:01.612Z,6.93
2023-05-10T07:32:30.348Z,6.60
2023-05-10T07:34:58.659Z,6.22
2023-05-10T07:37:26.990Z,8.02
2023-05-10T07:39:57.061Z,10.73
2023-05-10T07:42:25.173Z,15.10
2023-05-10T07:44:53.369Z,17.13
2023-05-10T07:47:21.533Z,17.63
2023-05-10T07:49:49.842Z,19.55
2023-05-10T07:52:18.065Z,19.35
2023-05-10T07:54:46.619Z,20.25
2023-05-10T07:57:18.550Z,21.35
2023-05-10T07:59:46.866Z,21.50
2023-05-10T08:02:15.166Z,22.42
2023-05-10T08:04:43.508Z,23.10
2023-05-10T08:07:11.880Z,22.58
2023-05-10T08:09:40.033Z,22.92
2023-05-10T08:12:32.758Z,24.70
2023-05-10T08:15:01.302Z,23.88
2023-05-10T08:17:29.525Z,24.50
2023-05-10T08:19:57.863Z,22.55
2023-05-10T08:22:26.207Z,22.85
2023-05-10T08:24:54.591Z,23.05
2023-05-10T08:27:22.834Z,23.85
2023-05-10T08:29:52.453Z,22.75
2023-05-10T08:32:21.249Z,21.08
2023-05-10T08:34:49.406Z,19.05
2023-05-10T08:37:17.732Z,20.38
2023-05-10T08:39:46.754Z,19.77
2023-05-10T08:42:18.232Z,19.55
2023-05-10T08:44:49.442Z,20.80
2023-05-10T08:47:20.676Z,19.67
2023-05-10T08:49:51.959Z,18.35
2023-05-10T08:52:21.065Z,19.30
2023-05-10T08:54:50.300Z,17.27
2023-05-10T08:57:18.472Z,18.95
2023-05-10T08:59:46.885Z,17.23
2023-05-10T09:02:18.583Z,17.30
2023-05-10T09:04:49.966Z,16.38
2023-05-10T09:07:19.006Z,16.50
2023-05-10T09:09:48.547Z,18.45
2023-05-10T09:12:17.420Z,16.25
2023-05-10T09:14:47.517Z,14.73
2023-05-10T09:17:16.398Z,14.10
2023-05-10T09:19:44.783Z,14.23
2023-05-10T09:22:14.678Z,14.68
2023-05-10T09:24:46.245Z,13.25
2023-05-10T09:27:14.552Z,13.05
2023-05-10T09:29:44.734Z,15.15
2023-05-10T09:32:13.865Z,12.35
2023-05-10T09:34:43.257Z,14.55
2023-05-10T09:37:11.558Z,12.07
2023-05-10T09:39:42.331Z,12.18
2023-05-10T09:42:11.363Z,12.40
2023-05-10T09:44:40.390Z,11.85
2023-05-10T09:47:08.623Z,11.23
2023-05-10T09:49:36.868Z,11.85
2023-05-10T09:52:06.592Z,11.15
2023-05-10T09:54:35.841Z,10.27
2023-05-10T09:57:06.000Z,10.00
2023-05-10T09:59:36.439Z,11.40
2023-05-10T10:02:05.165Z,10.48
2023-05-10T10:04:33.798Z,9.10
2023-05-10T10:07:04.775Z,9.80
2023-05-10T10:09:33.725Z,9.48
2023-05-10T10:12:02.925Z,8.30
2023-05-10T10:14:34.884Z,8.57
2023-05-10T10:19:36.208Z,7.25
2023-05-10T10:22:05.106Z,5.32
2023-05-10T10:24:33.504Z,7.50
2023-05-10T10:27:11.498Z,6.15
2023-05-10T10:29:49.641Z,5.70
2023-05-10T10:32:28.000Z,5.43
2023-05-10T10:34:57.992Z,5.22
2023-05-10T10:37:43.155Z,4.35
2023-05-10T10:40:33.695Z,3.28
2023-05-10T10:43:23.889Z,3.72
2023-05-10T10:46:18.277Z,4.18
2023-05-10T10:48:52.360Z,3.25
2023-05-10T10:51:20.604Z,3.10
2023-05-10T10:53:50.391Z,3.30
2023-05-10T10:56:25.209Z,3.05
2023-05-10T10:58:54.678Z,2.80
2023-05-10T11:01:24.591Z,3.30
2023-05-10T11:04:21.853Z,3.00
2023-05-10T11:06:50.073Z,6.07
2023-05-10T11:09:18.942Z,3.17
2023-05-10T11:11:56.198Z,4.90
2023-05-10T11:14:24.998Z,3.90
2023-05-10T11:16:54.675Z,4.05
2023-05-10T11:19:22.865Z,6.50
2023-05-10T11:21:52.338Z,4.57
2023-05-10T11:24:21.929Z,3.92
2023-05-10T11:26:52.801Z,3.45
2023-05-10T11:29:21.428Z,3.63
2023-05-10T11:31:50.481Z,4.03
2023-05-10T11:34:31.213Z,3.72
2023-05-10T11:37:00.166Z,4.20
2023-05-10T11:39:29.608Z,3.50
2023-05-10T11:41:58.201Z,2.50
2023-05-10T11:44:32.077Z,1.88
2023-05-10T11:47:01.708Z,1.88
2023-05-10T11:49:31.707Z,1.77
2023-05-10T11:52:07.098Z,1.70
2023-05-10T11:54:36.238Z,2.25
2023-05-10T11:57:04.721Z,1.95
2023-05-10T11:59:32.885Z,2.28
2023-05-10T12:02:01.209Z,2.22
2023-05-10T12:04:31.218Z,2.22
2023-05-10T12:06:59.817Z,2.35
2023-05-10T12:09:42.543Z,2.30
2023-05-10T12:12:12.589Z,2.70
2023-05-10T12:14:40.751Z,3.03
2023-05-10T12:17:13.856Z,3.60
2023-05-10T12:19:44.782Z,3.15
2023-05-10T12:22:13.159Z,3.60
2023-05-10T12:24:41.541Z,3.30
2023-05-10T12:27:10.849Z,3.60
2023-05-10T12:29:42.226Z,3.00
2023-05-10T12:32:11.263Z,2.55
2023-05-10T12:34:39.538Z,3.05
2023-05-10T12:37:09.405Z,3.15
2023-05-10T12:39:45.189Z,2.80
2023-05-10T12:42:13.711Z,2.95
2023-05-10T12:44:42.404Z,2.63
2023-05-10T12:47:10.647Z,3.10
2023-05-10T12:49:39.569Z,3.53
2023-05-10T12:52:09.129Z,3.85
2023-05-10T12:54:37.293Z,3.80
2023-05-10T12:57:05.820Z,3.92
2023-05-10T12:59:35.922Z,4.00
2023-05-10T13:02:05.638Z,3.90
2023-05-10T13:04:33.952Z,4.18
2023-05-10T13:07:02.122Z,3.70
2023-05-10T13:09:31.794Z,4.32
2023-05-10T13:12:00.517Z,3.85
2023-05-10T13:14:29.030Z,3.88
2023-05-10T13:16:57.262Z,4.10
2023-05-10T13:19:25.438Z,4.30
2023-05-10T13:21:53.941Z,4.20
2023-05-10T13:24:22.714Z,4.28
2023-05-10T13:27:09.889Z,4.47
2023-05-10T13:29:38.212Z,4.60
2023-05-10T13:32:07.211Z,4.80
2023-05-10T13:34:36.688Z,5.22
2023-05-10T13:37:04.968Z,5.78
2023-05-10T13:39:35.328Z,6.78
2023-05-10T13:42:04.986Z,6.22
2023-05-10T13:44:35.055Z,7.72
2023-05-10T13:47:03.398Z,7.95
2023-05-10T13:49:32.042Z,8.68
2023-05-10T13:52:00.208Z,9.45
2023-05-10T13:54:30.429Z,8.65
2023-05-10T13:56:58.602Z,8.48
2023-05-10T13:59:28.128Z,9.98
2023-05-10T14:01:56.432Z,9.82
2023-05-10T14:04:25.602Z,9.50
2023-05-10T14:06:54.532Z,9.50
2023-05-10T14:09:22.723Z,9.18
2023-05-10T14:11:50.919Z,9.43
2023-05-10T14:14:19.288Z,10.07
2023-05-10T14:16:48.978Z,10.38
2023-05-10T14:19:17.553Z,8.57
2023-05-10T14:21:45.728Z,9.32
2023-05-10T14:24:13.911Z,8.95
2023-05-10T14:26:42.703Z,8.93
2023-05-10T14:29:12.469Z,8.82
2023-05-10T14:31:41.028Z,7.22
2023-05-10T14:34:10.643Z,8.60
2023-05-10T14:36:38.809Z,7.55
2023-05-10T14:39:07.607Z,8.05
2023-05-10T14:41:36.595Z,7.50
2023-05-10T14:44:05.377Z,8.27
2023-05-10T14:46:35.488Z,7.13
2023-05-10T14:49:03.997Z,7.53
2023-05-10T14:51:33.853Z,6.45
2023-05-10T14:54:02.423Z,5.88
2023-05-10T14:56:30.653Z,6.70
2023-05-10T14:58:58.954Z,6.50
2023-05-10T15:01:27.424Z,5.90
2023-05-10T15:03:56.523Z,5.93
2023-05-10T15:06:26.611Z,6.00
2023-05-10T15:08:56.148Z,5.57
2023-05-10T15:11:24.404Z,6.47
2023-05-10T15:13:52.606Z,7.63
2023-05-10T15:16:21.288Z,7.05
2023-05-10T15:18:50.049Z,7.88
2023-05-10T15:21:18.299Z,7.75
2023-05-10T15:23:47.419Z,10.00
2023-05-10T15:26:17.265Z,16.63
2023-05-10T15:28:45.432Z,18.75
2023-05-10T15:31:13.667Z,15.35
2023-05-10T15:33:42.189Z,10.85
2023-05-10T15:36:10.503Z,12.70
2023-05-10T15:38:38.987Z,11.52
2023-05-10T15:41:07.642Z,15.18
2023-05-10T15:43:37.310Z,12.23
2023-05-10T15:46:06.951Z,10.85
2023-05-10T15:48:35.337Z,16.35
2023-05-10T15:51:03.553Z,12.35
2023-05-10T15:53:31.704Z,12.23
2023-05-10T15:55:59.996Z,12.63
2023-05-10T15:58:28.215Z,12.18
2023-05-10T16:00:57.917Z,11.25
2023-05-10T16:03:26.242Z,10.07
2023-05-10T16:05:54.797Z,10.80
2023-05-10T16:08:22.923Z,9.95
2023-05-10T16:10:52.467Z,10.07
2023-05-10T16:13:20.596Z,7.38
2023-05-10T16:15:48.762Z,8.23
2023-05-10T16:18:18.655Z,7.50
2023-05-10T16:20:46.913Z,8.00
2023-05-10T16:23:15.264Z,8.98
2023-05-10T16:25:43.519Z,8.40
2023-05-10T16:28:11.816Z,7.60
2023-05-10T16:30:39.991Z,8.20
2023-05-10T16:33:08.212Z,9.30
2023-05-10T16:35:37.709Z,9.15
2023-05-10T16:38:05.942Z,8.38
2023-05-10T16:40:34.133Z,7.53
2023-05-10T16:43:02.334Z,7.55
2023-05-10T16:45:32.481Z,6.20
2023-05-10T16:48:00.822Z,6.80
2023-05-10T16:50:29.031Z,7.07
2023-05-10T16:52:58.610Z,6.47
2023-05-10T16:55:26.965Z,5.88
2023-05-10T16:57:59.647Z,5.80
2023-05-10T17:00:28.264Z,6.40
2023-05-10T17:02:57.036Z,5.25
2023-05-10T17:05:25.347Z,5.60
2023-05-10T17:07:53.566Z,6.30
2023-05-10T17:10:23.259Z,6.00
2023-05-10T17:12:51.483Z,5.03
2023-05-10T17:15:20.675Z,5.50
2023-05-10T17:17:49.234Z,5.70
2023-05-10T17:20:17.573Z,4.82
2023-05-10T17:22:45.773Z,4.28
2023-05-10T17:25:13.970Z,5.03
2023-05-10T17:27:43.481Z,4.45
2023-05-10T17:30:12.769Z,4.43
2023-05-10T17:32:41.240Z,5.55
2023-05-10T17:35:09.959Z,5.93
2023-05-10T17:37:38.156Z,5.38
2023-05-10T17:40:07.845Z,5.20
2023-05-10T17:42:35.997Z,5.82
2023-05-10T17:45:05.957Z,5.63
2023-05-10T17:47:34.478Z,5.75
2023-05-10T17:50:02.742Z,6.45
2023-05-10T17:52:33.469Z,6.68
2023-05-10T17:55:02.445Z,4.78
2023-05-10T17:57:31.676Z,5.78
2023-05-10T17:59:59.917Z,5.38
2023-05-10T18:02:29.757Z,6.47
2023-05-10T18:05:01.224Z,6.20
2023-05-10T18:07:30.019Z,5.45
2023-05-10T18:09:58.234Z,6.18
2023-05-10T18:12:26.806Z,5.93
2023-05-10T18:14:54.940Z,5.60
2023-05-10T18:17:23.137Z,6.45
2023-05-10T18:19:53.519Z,7.43
2023-05-10T18:22:21.703Z,6.18
2023-05-10T18:24:49.793Z,5.60
2023-05-10T18:27:17.977Z,6.15
2023-05-10T18:29:46.285Z,6.00
2023-05-10T18:32:14.372Z,5.63
2023-05-10T18:34:42.544Z,5.57
2023-05-10T18:37:12.266Z,5.68
2023-05-10T18:39:40.783Z,5.93
2023-05-10T18:42:09.675Z,5.22
2023-05-10T18:44:37.854Z,5.90
2023-05-10T18:47:07.074Z,5.47
2023-05-10T18:49:35.223Z,6.47
2023-05-10T18:52:03.445Z,6.35
2023-05-10T18:54:32.932Z,6.90
2023-05-10T18:57:01.104Z,5.38
2023-05-10T18:59:29.200Z,6.15
2023-05-10T19:01:57.835Z,6.95
2023-05-10T19:04:27.215Z,7.00
2023-05-10T19:06:56.018Z,6.63
2023-05-10T19:09:24.468Z,6.93
2023-05-10T19:11:53.976Z,7.13
2023-05-10T19:14:22.427Z,7.10
2023-05-10T19:16:52.074Z,6.80
2023-05-10T19:19:21.248Z,6.55
2023-05-10T19:21:49.596Z,7.43
2023-05-10T19:24:21.737Z,5.82
2023-05-10T19:26:50.045Z,6.38
2023-05-10T19:29:19.689Z,5.38
2023-05-10T19:31:48.810Z,5.53
2023-05-10T19:34:17.328Z,6.60
2023-05-10T19:36:46.043Z,6.43
2023-05-10T19:39:14.299Z,7.25
2023-05-10T19:41:42.721Z,6.10
2023-05-10T19:44:11.255Z,6.03
2023-05-10T19:46:40.855Z,6.53
2023-05-10T19:49:09.208Z,6.30
2023-05-10T19:51:37.415Z,6.22
2023-05-10T19:54:05.595Z,6.68
2023-05-10T19:56:33.781Z,4.97
2023-05-10T19:59:03.267Z,5.13
2023-05-10T20:01:32.764Z,4.15
2023-05-10T20:04:02.554Z,4.82
2023-05-10T20:06:31.649Z,4.63
2023-05-10T20:08:59.805Z,4.25
2023-05-10T20:11:28.023Z,5.05
2023-05-10T20:13:56.427Z,5.03
2023-05-10T20:16:26.782Z,4.78
2023-05-10T20:18:55.470Z,4.68
2023-05-10T20:21:26.778Z,4.28
2023-05-10T20:23:55.117Z,5.38
2023-05-10T20:26:23.321Z,5.32
2023-05-10T20:28:52.370Z,5.60
2023-05-10T20:31:20.698Z,5.70
2023-05-10T20:33:49.059Z,5.78
2023-05-10T20:36:17.278Z,8.32
2023-05-10T20:38:46.840Z,6.32
2023-05-10T20:41:15.046Z,6.88
2023-05-10T20:43:43.433Z,7.85
2023-05-10T20:46:12.297Z,7.05
2023-05-10T20:48:40.443Z,7.07
2023-05-10T20:51:08.569Z,6.72
2023-05-10T20:53:36.715Z,7.03
2023-05-10T20:56:06.553Z,7.07
2023-05-10T20:58:35.953Z,6.97
2023-05-10T21:01:04.309Z,7.07
2023-05-10T21:03:32.938Z,6.57
2023-05-10T21:06:01.080Z,7.53
2023-05-10T21:08:29.222Z,6.97
2023-05-10T21:10:57.498Z,7.55
2023-05-10T21:13:27.379Z,8.68
2023-05-10T21:15:55.643Z,8.02
2023-05-10T21:18:23.830Z,6.22
2023-05-10T21:20:52.064Z,7.97
2023-05-10T21:23:20.180Z,10.18
2023-05-10T21:25:48.379Z,10.38
2023-05-10T21:28:16.566Z,7.00
2023-05-10T21:30:46.504Z,6.55
2023-05-10T21:33:14.712Z,7.25
2023-05-10T21:35:43.188Z,7.25
2023-05-10T21:38:12.056Z,7.97
2023-05-10T21:40:40.851Z,7.07
2023-05-10T21:43:09.605Z,7.88
2023-05-10T21:45:37.960Z,11.88
2023-05-10T21:48:07.722Z,12.13
2023-05-10T21:50:35.933Z,10.57
2023-05-10T21:53:04.127Z,10.40
2023-05-10T21:55:32.533Z,11.48
2023-05-10T21:58:00.630Z,10.50
2023-05-10T22:00:28.793Z,11.45
2023-05-10T22:02:56.987Z,14.55
2023-05-10T22:05:26.546Z,16.27
2023-05-10T22:07:55.047Z,14.52
2023-05-10T22:10:23.189Z,11.98
2023-05-10T22:12:51.692Z,17.25
2023-05-10T22:15:20.083Z,10.10
2023-05-10T22:17:48.276Z,14.73
2023-05-10T22:20:16.928Z,11.82
2023-05-10T22:22:46.636Z,12.02
2023-05-10T22:25:14.928Z,9.45
2023-05-10T22:27:43.046Z,9.35
2023-05-10T22:30:12.074Z,9.48
2023-05-10T22:32:40.248Z,11.00
2023-05-10T22:35:09.795Z,10.07
2023-05-10T22:37:37.914Z,9.65
2023-05-10T22:40:08.976Z,11.02
2023-05-10T22:42:37.107Z,9.20
2023-05-10T22:45:06.141Z,8.38
2023-05-10T22:47:34.481Z,10.52
2023-05-10T22:50:04.106Z,9.10
2023-05-10T22:52:33.643Z,9.30
2023-05-10T22:55:01.951Z,10.52
2023-05-10T22:57:32.417Z,11.75
2023-05-10T23:00:00.807Z,11.20
2023-05-10T23:02:29.025Z,9.80
2023-05-10T23:04:57.651Z,13.93
2023-05-10T23:07:26.413Z,13.35
2023-05-10T23:09:54.546Z,11.57
2023-05-10T23:12:22.684Z,15.82
2023-05-10T23:14:52.192Z,12.20
2023-05-10T23:17:20.506Z,11.60
2023-05-10T23:19:48.675Z,11.90
2023-05-10T23:22:17.016Z,11.40
2023-05-10T23:24:45.139Z,10.18
2023-05-10T23:27:13.604Z,13.45
2023-05-10T23:29:41.777Z,9.38
2023-05-10T23:32:11.485Z,11.60
2023-05-10T23:34:39.630Z,15.77
2023-05-10T23:37:07.743Z,11.88
2023-05-10T23:39:36.373Z,12.25
2023-05-10T23:42:04.726Z,11.88
2023-05-10T23:44:32.882Z,14.20
2023-05-10T23:47:01.853Z,11.27
2023-05-10T23:49:31.329Z,8.77
2023-05-10T23:51:59.493Z,10.68
2023-05-10T23:54:28.041Z,10.23
2023-05-10T23:56:56.182Z,9.90
2023-05-10T23:59:24.694Z,9.23
